createdAt,value
2019-04-07T00:00:03.960Z,11.14
2019-04-07T00:04:10.921Z,10.92
2019-04-07T00:08:16.846Z,10.92
2019-04-07T00:12:24.620Z,10.98
2019-04-07T00:16:29.820Z,10.94
2019-04-07T00:20:35.250Z,10.92
2019-04-07T00:24:40.369Z,10.88
2019-04-07T00:28:45.515Z,10.93
2019-04-07T00:32:50.725Z,10.89
2019-04-07T00:36:55.972Z,10.90
2019-04-07T00:41:01.411Z,10.90
2019-04-07T00:45:07.089Z,10.88
2019-04-07T00:49:13.233Z,10.90
2019-04-07T00:53:18.799Z,10.86
2019-04-07T00:57:24.364Z,10.97
2019-04-07T01:01:29.563Z,10.92
2019-04-07T01:05:38.544Z,10.91
2019-04-07T01:09:41.655Z,10.84
2019-04-07T01:13:47.369Z,10.86
2019-04-07T01:17:53.510Z,10.99
2019-04-07T01:21:59.074Z,10.94
2019-04-07T01:26:04.807Z,11.04
2019-04-07T01:30:10.662Z,11.04
2019-04-07T01:34:16.299Z,11.05
2019-04-07T01:38:22.495Z,11.11
2019-04-07T01:42:33.408Z,11.13
2019-04-07T01:46:56.929Z,11.20
2019-04-07T01:51:39.169Z,11.22
2019-04-07T01:55:59.548Z,11.20
2019-04-07T02:00:13.779Z,11.11
2019-04-07T02:04:28.087Z,11.11
2019-04-07T02:08:51.801Z,11.06
2019-04-07T02:13:19.849Z,11.01
2019-04-07T02:17:34.023Z,11.08
2019-04-07T02:21:58.372Z,11.03
2019-04-07T02:26:11.460Z,10.91
2019-04-07T02:30:33.050Z,10.80
2019-04-07T02:35:03.631Z,10.75
2019-04-07T02:39:27.821Z,10.56
2019-04-07T02:43:52.988Z,10.64
2019-04-07T02:48:26.582Z,10.77
2019-04-07T02:52:53.512Z,10.74
2019-04-07T02:57:20.668Z,10.90
2019-04-07T03:01:45.344Z,11.08
2019-04-07T03:06:10.057Z,11.13
2019-04-07T03:10:44.148Z,10.60
2019-04-07T03:14:58.492Z,10.60
2019-04-07T03:19:08.808Z,10.31
2019-04-07T03:23:31.789Z,10.36
2019-04-07T03:27:59.181Z,10.18
2019-04-07T03:32:27.926Z,9.86
2019-04-07T03:37:16.930Z,9.47
2019-04-07T03:41:05.561Z,9.55
2019-04-07T03:45:35.815Z,9.45
2019-04-07T03:49:59.707Z,9.59
2019-04-07T03:54:14.233Z,9.31
2019-04-07T03:58:29.876Z,9.20
2019-04-07T04:03:00.333Z,9.57
2019-04-07T04:07:33.961Z,9.45
2019-04-07T04:11:43.716Z,9.26
2019-04-07T04:16:15.105Z,9.02
2019-04-07T04:20:20.439Z,9.03
2019-04-07T04:24:26.619Z,9.12
2019-04-07T04:28:31.966Z,8.97
2019-04-07T04:32:37.233Z,8.91
2019-04-07T04:36:44.730Z,8.85
2019-04-07T04:40:50.577Z,8.86
2019-04-07T04:44:55.948Z,8.81
2019-04-07T04:49:02.347Z,9.29
2019-04-07T04:53:09.233Z,9.24
2019-04-07T04:57:15.059Z,8.83
2019-04-07T05:01:20.626Z,8.63
2019-04-07T05:05:25.804Z,8.74
2019-04-07T05:09:43.197Z,8.54
2019-04-07T05:13:37.687Z,8.54
2019-04-07T05:17:43.465Z,8.44
2019-04-07T05:21:49.484Z,8.46
2019-04-07T05:25:54.800Z,8.37
2019-04-07T05:30:02.432Z,8.36
2019-04-07T05:34:08.031Z,8.26
2019-04-07T05:38:13.602Z,8.21
2019-04-07T05:42:18.926Z,8.14
2019-04-07T05:46:24.995Z,8.16
2019-04-07T05:50:30.727Z,8.28
2019-04-07T05:54:37.745Z,8.49
2019-04-07T05:58:43.896Z,8.49
2019-04-07T06:02:49.273Z,8.49
2019-04-07T06:06:56.388Z,8.92
2019-04-07T06:11:02.461Z,9.04
2019-04-07T06:15:08.066Z,9.44
2019-04-07T06:19:13.547Z,9.24
2019-04-07T06:23:22.747Z,9.43
2019-04-07T06:27:25.815Z,10.08
2019-04-07T06:31:32.232Z,10.22
2019-04-07T06:35:37.996Z,10.25
2019-04-07T06:39:44.019Z,10.43
2019-04-07T06:43:49.702Z,10.03
2019-04-07T06:47:57.256Z,10.41
2019-04-07T06:52:20.890Z,10.76
2019-04-07T06:56:35.694Z,11.24
2019-04-07T07:01:02.150Z,11.39
2019-04-07T07:05:17.851Z,11.74
2019-04-07T07:09:35.063Z,11.93
2019-04-07T07:13:49.920Z,12.23
2019-04-07T07:18:32.357Z,12.26
2019-04-07T07:23:00.702Z,12.51
2019-04-07T07:27:09.392Z,12.60
2019-04-07T07:31:14.335Z,12.86
2019-04-07T07:35:19.558Z,12.80
2019-04-07T07:39:25.096Z,12.94
2019-04-07T07:43:32.448Z,13.26
2019-04-07T07:47:38.474Z,13.45
2019-04-07T07:51:47.370Z,13.66
2019-04-07T07:55:51.180Z,13.49
2019-04-07T07:59:56.488Z,14.06
2019-04-07T08:04:01.965Z,14.00
2019-04-07T08:08:07.325Z,14.32
2019-04-07T08:12:12.689Z,14.57
2019-04-07T08:16:19.107Z,14.61
2019-04-07T08:20:25.671Z,15.12
2019-04-07T08:24:31.784Z,15.26
2019-04-07T08:28:38.173Z,15.29
2019-04-07T08:32:44.150Z,15.55
2019-04-07T08:36:49.532Z,15.37
2019-04-07T08:40:55.203Z,15.60
2019-04-07T08:45:00.722Z,16.20
2019-04-07T08:49:06.594Z,16.45
2019-04-07T08:53:13.765Z,16.38
2019-04-07T08:57:19.624Z,16.78
2019-04-07T09:01:25.749Z,16.89
2019-04-07T09:05:31.790Z,17.13
2019-04-07T09:09:42.798Z,17.21
2019-04-07T09:13:50.663Z,17.08
2019-04-07T09:18:16.076Z,17.37
2019-04-07T09:22:31.871Z,17.49
2019-04-07T09:27:02.238Z,18.10
2019-04-07T09:31:29.421Z,18.21
2019-04-07T09:35:54.727Z,17.73
2019-04-07T09:40:18.538Z,18.11
2019-04-07T09:44:56.307Z,17.67
2019-04-07T09:49:26.455Z,18.21
2019-04-07T09:53:50.704Z,18.63
2019-04-07T09:58:09.282Z,18.12
2019-04-07T10:02:35.444Z,18.15
2019-04-07T10:06:58.386Z,18.90
2019-04-07T10:11:28.537Z,18.67
2019-04-07T10:15:54.274Z,18.57
2019-04-07T10:20:34.159Z,18.81
2019-04-07T10:25:03.188Z,18.83
2019-04-07T10:29:20.563Z,18.66
2019-04-07T10:33:47.184Z,18.90
2019-04-07T10:38:04.437Z,18.70
2019-04-07T10:42:29.276Z,18.70
2019-04-07T10:46:42.781Z,19.62
2019-04-07T10:51:05.659Z,19.31
2019-04-07T10:55:18.040Z,19.48
2019-04-07T10:59:49.201Z,20.61
2019-04-07T11:04:11.617Z,20.29
2019-04-07T11:08:26.557Z,19.88
2019-04-07T11:12:51.349Z,19.65
2019-04-07T11:17:21.557Z,19.87
2019-04-07T11:21:50.276Z,20.86
2019-04-07T11:26:20.848Z,20.16
2019-04-07T11:30:45.470Z,19.85
2019-04-07T11:34:58.432Z,21.24
2019-04-07T11:39:24.426Z,19.80
2019-04-07T11:43:35.923Z,20.03
2019-04-07T11:48:03.453Z,19.52
2019-04-07T11:52:23.515Z,20.78
2019-04-07T11:56:47.711Z,20.46
2019-04-07T12:01:05.827Z,20.69
2019-04-07T12:05:33.340Z,21.31
2019-04-07T12:09:56.310Z,21.24
2019-04-07T12:14:30.759Z,20.97
2019-04-07T12:18:50.199Z,22.11
2019-04-07T12:23:16.012Z,21.61
2019-04-07T12:27:37.799Z,22.64
2019-04-07T12:32:18.101Z,21.61
2019-04-07T12:36:33.303Z,21.38
2019-04-07T12:41:12.711Z,21.02
2019-04-07T12:45:12.383Z,21.52
2019-04-07T12:49:39.183Z,21.94
2019-04-07T12:54:20.610Z,22.00
2019-04-07T12:58:44.052Z,22.27
2019-04-07T13:03:14.551Z,21.48
2019-04-07T13:07:41.539Z,21.48
2019-04-07T13:12:04.368Z,21.98
2019-04-07T13:16:23.858Z,23.63
2019-04-07T13:20:44.190Z,23.26
2019-04-07T13:25:11.718Z,22.85
2019-04-07T13:29:30.164Z,23.29
2019-04-07T13:33:41.373Z,23.84
2019-04-07T13:38:01.060Z,24.02
2019-04-07T13:42:35.711Z,24.16
2019-04-07T13:46:59.639Z,24.65
2019-04-07T13:51:15.502Z,24.69
2019-04-07T13:55:41.611Z,24.83
2019-04-07T14:00:02.808Z,23.17
2019-04-07T14:04:34.553Z,23.89
2019-04-07T14:09:06.922Z,22.79
2019-04-07T14:13:43.128Z,23.30
2019-04-07T14:17:58.741Z,22.78
2019-04-07T14:22:15.537Z,22.06
2019-04-07T14:26:41.301Z,22.51
2019-04-07T14:31:06.469Z,24.09
2019-04-07T14:35:33.652Z,24.29
2019-04-07T14:39:44.453Z,26.65
2019-04-07T14:44:05.310Z,26.06
2019-04-07T14:48:29.360Z,23.61
2019-04-07T14:53:03.113Z,22.95
2019-04-07T14:57:24.493Z,23.21
2019-04-07T15:01:47.342Z,24.80
2019-04-07T15:05:56.339Z,23.52
2019-04-07T15:10:17.999Z,22.62
2019-04-07T15:14:23.352Z,21.70
2019-04-07T15:18:29.780Z,21.96
2019-04-07T15:22:34.935Z,23.86
2019-04-07T15:26:41.263Z,24.87
2019-04-07T15:30:48.246Z,26.05
2019-04-07T15:34:53.445Z,24.90
2019-04-07T15:38:59.460Z,24.45
2019-04-07T15:43:08.762Z,24.22
2019-04-07T15:47:12.558Z,21.81
2019-04-07T15:51:17.675Z,21.61
2019-04-07T15:55:26.327Z,21.70
2019-04-07T15:59:31.400Z,21.57
2019-04-07T16:03:36.772Z,21.68
2019-04-07T16:07:54.322Z,21.46
2019-04-07T16:12:00.648Z,21.75
2019-04-07T16:16:06.085Z,23.59
2019-04-07T16:20:20.674Z,24.19
2019-04-07T16:24:21.965Z,22.23
2019-04-07T16:28:27.418Z,21.13
2019-04-07T16:32:32.807Z,20.41
2019-04-07T16:36:41.295Z,20.32
2019-04-07T16:40:46.743Z,20.36
2019-04-07T16:44:52.592Z,20.41
2019-04-07T16:48:58.711Z,20.63
2019-04-07T16:53:07.569Z,20.13
2019-04-07T16:57:15.398Z,19.70
2019-04-07T17:01:20.537Z,19.97
2019-04-07T17:05:25.712Z,21.00
2019-04-07T17:09:33.424Z,21.61
2019-04-07T17:13:41.857Z,21.24
2019-04-07T17:17:46.527Z,21.83
2019-04-07T17:21:53.310Z,22.02
2019-04-07T17:25:58.658Z,20.91
2019-04-07T17:30:04.838Z,20.72
2019-04-07T17:34:12.072Z,21.11
2019-04-07T17:38:18.264Z,21.25
2019-04-07T17:42:26.263Z,20.62
2019-04-07T17:46:55.830Z,20.75
2019-04-07T17:51:21.830Z,19.67
2019-04-07T17:55:57.541Z,19.53
2019-04-07T18:00:22.365Z,19.48
2019-04-07T18:04:52.464Z,19.54
2019-04-07T18:09:23.543Z,19.34
2019-04-07T18:13:56.652Z,19.18
2019-04-07T18:18:21.297Z,18.84
2019-04-07T18:22:53.929Z,18.75
2019-04-07T18:27:11.012Z,18.73
2019-04-07T18:31:24.423Z,18.68
2019-04-07T18:35:52.208Z,18.74
2019-04-07T18:40:15.093Z,18.49
2019-04-07T18:44:45.283Z,18.42
2019-04-07T18:49:19.143Z,18.46
2019-04-07T18:54:01.402Z,18.38
2019-04-07T18:58:22.414Z,18.28
2019-04-07T19:02:53.463Z,18.16
2019-04-07T19:07:18.504Z,17.85
2019-04-07T19:11:42.760Z,17.58
2019-04-07T19:16:04.091Z,17.58
2019-04-07T19:20:41.802Z,17.56
2019-04-07T19:24:58.541Z,17.56
2019-04-07T19:29:29.420Z,17.39
2019-04-07T19:34:11.876Z,17.37
2019-04-07T19:38:30.978Z,17.33
2019-04-07T19:42:53.404Z,17.64
2019-04-07T19:47:05.089Z,17.69
2019-04-07T19:51:32.161Z,17.55
2019-04-07T19:55:59.802Z,16.53
2019-04-07T20:00:24.628Z,16.88
2019-04-07T20:04:37.371Z,16.63
2019-04-07T20:08:49.345Z,16.43
2019-04-07T20:13:06.279Z,16.39
2019-04-07T20:17:34.449Z,16.14
2019-04-07T20:22:04.713Z,16.11
2019-04-07T20:26:21.422Z,16.09
2019-04-07T20:30:49.642Z,16.08
2019-04-07T20:35:11.541Z,16.16
2019-04-07T20:39:36.697Z,16.17
2019-04-07T20:44:07.659Z,16.05
2019-04-07T20:48:38.155Z,16.08
2019-04-07T20:52:53.601Z,15.94
2019-04-07T20:57:34.117Z,15.81
2019-04-07T21:02:03.403Z,15.59
2019-04-07T21:06:19.802Z,15.51
2019-04-07T21:10:37.683Z,15.45
2019-04-07T21:15:18.257Z,15.39
2019-04-07T21:19:38.421Z,15.95
2019-04-07T21:24:03.662Z,15.82
2019-04-07T21:28:13.646Z,15.06
2019-04-07T21:32:53.960Z,14.99
2019-04-07T21:37:34.034Z,14.42
2019-04-07T21:41:58.365Z,15.22
2019-04-07T21:46:22.197Z,15.07
2019-04-07T21:50:44.858Z,14.56
2019-04-07T21:55:09.846Z,14.45
2019-04-07T21:59:28.446Z,14.66
2019-04-07T22:03:56.881Z,14.27
2019-04-07T22:08:13.052Z,14.07
2019-04-07T22:12:13.103Z,13.31
2019-04-07T22:16:18.607Z,13.26
2019-04-07T22:20:29.223Z,13.28
2019-04-07T22:24:38.343Z,13.41
2019-04-07T22:28:44.727Z,13.50
2019-04-07T22:32:51.308Z,13.31
2019-04-07T22:36:57.861Z,13.16
2019-04-07T22:41:06.799Z,12.95
2019-04-07T22:45:11.756Z,12.93
2019-04-07T22:49:19.817Z,12.79
2019-04-07T22:53:28.484Z,12.76
2019-04-07T22:57:33.800Z,12.60
2019-04-07T23:01:39.203Z,12.53
2019-04-07T23:05:44.429Z,12.43
2019-04-07T23:09:52.565Z,12.36
2019-04-07T23:13:59.360Z,12.46
2019-04-07T23:18:07.374Z,12.35
2019-04-07T23:22:12.630Z,12.25
2019-04-07T23:26:18.107Z,12.13
2019-04-07T23:30:23.907Z,11.93
2019-04-07T23:34:29.279Z,11.98
2019-04-07T23:38:36.883Z,12.10
2019-04-07T23:42:43.409Z,11.99
2019-04-07T23:46:50.914Z,12.05
2019-04-07T23:50:58.261Z,11.87
2019-04-07T23:55:04.309Z,11.82
2019-04-07T23:59:10.364Z,11.74
